sensor_id;sensor_type;location;lat;lon;timestamp;P1;durP1;ratioP1;P2;durP2;ratioP2
20844;SDS011;10583;49.084;8.646;2022-07-09T00:01:27;3.07;;;3.07;;
20844;SDS011;10583;49.084;8.646;2022-07-09T00:03:54;2.60;;;2.60;;
20844;SDS011;10583;49.084;8.646;2022-07-09T00:06:21;2.80;;;2.80;;
20844;SDS011;10583;49.084;8.646;2022-07-09T00:08:47;2.60;;;2.60;;
20844;SDS011;10583;49.084;8.646;2022-07-09T00:11:14;3.00;;;3.00;;
20844;SDS011;10583;49.084;8.646;2022-07-09T00:13:41;2.70;;;2.70;;
20844;SDS011;10583;49.084;8.646;2022-07-09T00:16:07;2.87;;;2.87;;
20844;SDS011;10583;49.084;8.646;2022-07-09T00:18:35;2.73;;;2.73;;
20844;SDS011;10583;49.084;8.646;2022-07-09T00:21:02;2.97;;;2.97;;
20844;SDS011;10583;49.084;8.646;2022-07-09T00:23:29;2.77;;;2.77;;
20844;SDS011;10583;49.084;8.646;2022-07-09T00:25:55;2.77;;;2.77;;
20844;SDS011;10583;49.084;8.646;2022-07-09T00:28:22;2.60;;;2.60;;
20844;SDS011;10583;49.084;8.646;2022-07-09T00:30:49;2.60;;;2.60;;
20844;SDS011;10583;49.084;8.646;2022-07-09T00:33:15;2.70;;;2.70;;
20844;SDS011;10583;49.084;8.646;2022-07-09T00:35:43;2.50;;;2.50;;
20844;SDS011;10583;49.084;8.646;2022-07-09T00:38:10;3.00;;;3.00;;
20844;SDS011;10583;49.084;8.646;2022-07-09T00:40:37;2.40;;;2.40;;
20844;SDS011;10583;49.084;8.646;2022-07-09T00:43:14;2.27;;;2.27;;
20844;SDS011;10583;49.084;8.646;2022-07-09T00:45:41;2.13;;;2.13;;
20844;SDS011;10583;49.084;8.646;2022-07-09T00:48:08;2.60;;;2.60;;
20844;SDS011;10583;49.084;8.646;2022-07-09T00:50:34;2.40;;;2.40;;
20844;SDS011;10583;49.084;8.646;2022-07-09T00:53:03;2.53;;;2.53;;
20844;SDS011;10583;49.084;8.646;2022-07-09T00:55:31;2.50;;;2.50;;
20844;SDS011;10583;49.084;8.646;2022-07-09T00:57:58;2.60;;;2.60;;
20844;SDS011;10583;49.084;8.646;2022-07-09T01:00:25;3.40;;;3.40;;
20844;SDS011;10583;49.084;8.646;2022-07-09T01:02:51;2.63;;;2.63;;
20844;SDS011;10583;49.084;8.646;2022-07-09T01:05:19;2.27;;;2.27;;
20844;SDS011;10583;49.084;8.646;2022-07-09T01:07:45;2.40;;;2.40;;
20844;SDS011;10583;49.084;8.646;2022-07-09T01:10:13;2.17;;;2.17;;
20844;SDS011;10583;49.084;8.646;2022-07-09T01:12:40;2.00;;;2.00;;
20844;SDS011;10583;49.084;8.646;2022-07-09T01:15:07;2.20;;;2.20;;
20844;SDS011;10583;49.084;8.646;2022-07-09T01:17:36;2.27;;;2.27;;
20844;SDS011;10583;49.084;8.646;2022-07-09T01:20:04;2.67;;;2.67;;
20844;SDS011;10583;49.084;8.646;2022-07-09T01:22:33;2.60;;;2.60;;
20844;SDS011;10583;49.084;8.646;2022-07-09T01:25:00;2.30;;;2.30;;
20844;SDS011;10583;49.084;8.646;2022-07-09T01:27:27;2.60;;;2.60;;
20844;SDS011;10583;49.084;8.646;2022-07-09T01:29:53;2.43;;;2.43;;
20844;SDS011;10583;49.084;8.646;2022-07-09T01:32:20;2.47;;;2.47;;
20844;SDS011;10583;49.084;8.646;2022-07-09T01:34:47;2.50;;;2.50;;
20844;SDS011;10583;49.084;8.646;2022-07-09T01:37:13;2.60;;;2.60;;
20844;SDS011;10583;49.084;8.646;2022-07-09T01:39:42;2.40;;;2.40;;
20844;SDS011;10583;49.084;8.646;2022-07-09T01:42:16;2.50;;;2.50;;
20844;SDS011;10583;49.084;8.646;2022-07-09T01:44:43;2.43;;;2.43;;
20844;SDS011;10583;49.084;8.646;2022-07-09T01:47:10;2.80;;;2.80;;
20844;SDS011;10583;49.084;8.646;2022-07-09T01:49:37;2.80;;;2.80;;
20844;SDS011;10583;49.084;8.646;2022-07-09T01:52:04;2.50;;;2.50;;
20844;SDS011;10583;49.084;8.646;2022-07-09T01:54:31;2.90;;;2.90;;
20844;SDS011;10583;49.084;8.646;2022-07-09T01:56:59;2.70;;;2.70;;
20844;SDS011;10583;49.084;8.646;2022-07-09T01:59:26;2.80;;;2.80;;
20844;SDS011;10583;49.084;8.646;2022-07-09T02:01:52;2.67;;;2.67;;
20844;SDS011;10583;49.084;8.646;2022-07-09T02:04:19;2.87;;;2.87;;
20844;SDS011;10583;49.084;8.646;2022-07-09T02:06:45;2.90;;;2.90;;
20844;SDS011;10583;49.084;8.646;2022-07-09T02:09:12;2.57;;;2.57;;
20844;SDS011;10583;49.084;8.646;2022-07-09T02:11:39;2.47;;;2.47;;
20844;SDS011;10583;49.084;8.646;2022-07-09T02:14:07;2.90;;;2.90;;
20844;SDS011;10583;49.084;8.646;2022-07-09T02:16:34;2.83;;;2.83;;
20844;SDS011;10583;49.084;8.646;2022-07-09T02:19:01;2.70;;;2.70;;
20844;SDS011;10583;49.084;8.646;2022-07-09T02:21:28;3.20;;;3.20;;
20844;SDS011;10583;49.084;8.646;2022-07-09T02:23:54;3.20;;;3.20;;
20844;SDS011;10583;49.084;8.646;2022-07-09T02:26:24;3.70;;;3.70;;
20844;SDS011;10583;49.084;8.646;2022-07-09T02:28:52;3.00;;;3.00;;
20844;SDS011;10583;49.084;8.646;2022-07-09T02:31:20;3.27;;;3.27;;
20844;SDS011;10583;49.084;8.646;2022-07-09T02:33:47;3.43;;;3.43;;
20844;SDS011;10583;49.084;8.646;2022-07-09T02:36:14;3.33;;;3.33;;
20844;SDS011;10583;49.084;8.646;2022-07-09T02:38:40;3.20;;;3.20;;
20844;SDS011;10583;49.084;8.646;2022-07-09T02:41:07;3.10;;;3.10;;
20844;SDS011;10583;49.084;8.646;2022-07-09T02:43:34;3.03;;;3.03;;
20844;SDS011;10583;49.084;8.646;2022-07-09T02:46:00;3.60;;;3.60;;
20844;SDS011;10583;49.084;8.646;2022-07-09T02:48:30;3.33;;;3.33;;
20844;SDS011;10583;49.084;8.646;2022-07-09T02:50:57;3.27;;;3.27;;
20844;SDS011;10583;49.084;8.646;2022-07-09T02:53:25;3.60;;;3.60;;
20844;SDS011;10583;49.084;8.646;2022-07-09T02:55:52;3.07;;;3.07;;
20844;SDS011;10583;49.084;8.646;2022-07-09T02:58:19;3.00;;;3.00;;
20844;SDS011;10583;49.084;8.646;2022-07-09T03:00:45;3.33;;;3.33;;
20844;SDS011;10583;49.084;8.646;2022-07-09T03:03:12;3.20;;;3.20;;
20844;SDS011;10583;49.084;8.646;2022-07-09T03:05:40;3.20;;;3.20;;
20844;SDS011;10583;49.084;8.646;2022-07-09T03:08:07;2.93;;;2.93;;
20844;SDS011;10583;49.084;8.646;2022-07-09T03:10:34;3.33;;;3.33;;
20844;SDS011;10583;49.084;8.646;2022-07-09T03:13:01;2.90;;;2.90;;
20844;SDS011;10583;49.084;8.646;2022-07-09T03:15:27;3.57;;;3.57;;
20844;SDS011;10583;49.084;8.646;2022-07-09T03:17:54;2.90;;;2.90;;
20844;SDS011;10583;49.084;8.646;2022-07-09T03:20:21;2.87;;;2.87;;
20844;SDS011;10583;49.084;8.646;2022-07-09T03:22:49;2.87;;;2.87;;
20844;SDS011;10583;49.084;8.646;2022-07-09T03:25:16;2.90;;;2.90;;
20844;SDS011;10583;49.084;8.646;2022-07-09T03:27:43;3.10;;;3.10;;
20844;SDS011;10583;49.084;8.646;2022-07-09T03:30:10;3.00;;;3.00;;
20844;SDS011;10583;49.084;8.646;2022-07-09T03:32:37;2.93;;;2.93;;
20844;SDS011;10583;49.084;8.646;2022-07-09T03:35:04;3.20;;;3.20;;
20844;SDS011;10583;49.084;8.646;2022-07-09T03:37:31;4.07;;;4.07;;
20844;SDS011;10583;49.084;8.646;2022-07-09T03:40:00;3.60;;;3.60;;
20844;SDS011;10583;49.084;8.646;2022-07-09T03:42:27;3.33;;;3.33;;
20844;SDS011;10583;49.084;8.646;2022-07-09T03:44:54;3.13;;;3.13;;
20844;SDS011;10583;49.084;8.646;2022-07-09T03:47:21;3.23;;;3.23;;
20844;SDS011;10583;49.084;8.646;2022-07-09T03:49:48;3.10;;;3.10;;
20844;SDS011;10583;49.084;8.646;2022-07-09T03:52:14;3.50;;;3.50;;
20844;SDS011;10583;49.084;8.646;2022-07-09T03:54:41;3.37;;;3.37;;
20844;SDS011;10583;49.084;8.646;2022-07-09T03:57:10;3.70;;;3.70;;
20844;SDS011;10583;49.084;8.646;2022-07-09T03:59:36;3.53;;;3.53;;
20844;SDS011;10583;49.084;8.646;2022-07-09T04:02:03;4.23;;;4.23;;
20844;SDS011;10583;49.084;8.646;2022-07-09T04:04:30;4.27;;;4.27;;
20844;SDS011;10583;49.084;8.646;2022-07-09T04:06:57;3.50;;;3.50;;
20844;SDS011;10583;49.084;8.646;2022-07-09T04:09:24;3.60;;;3.60;;
20844;SDS011;10583;49.084;8.646;2022-07-09T04:11:50;3.60;;;3.60;;
20844;SDS011;10583;49.084;8.646;2022-07-09T04:14:18;3.67;;;3.67;;
20844;SDS011;10583;49.084;8.646;2022-07-09T04:16:45;3.50;;;3.50;;
20844;SDS011;10583;49.084;8.646;2022-07-09T04:19:12;3.10;;;3.10;;
20844;SDS011;10583;49.084;8.646;2022-07-09T04:21:39;3.83;;;3.83;;
20844;SDS011;10583;49.084;8.646;2022-07-09T04:24:06;3.53;;;3.53;;
20844;SDS011;10583;49.084;8.646;2022-07-09T04:26:33;3.70;;;3.70;;
20844;SDS011;10583;49.084;8.646;2022-07-09T04:29:00;2.80;;;2.80;;
20844;SDS011;10583;49.084;8.646;2022-07-09T04:31:27;3.23;;;3.23;;
20844;SDS011;10583;49.084;8.646;2022-07-09T04:33:54;3.33;;;3.33;;
20844;SDS011;10583;49.084;8.646;2022-07-09T04:36:21;4.03;;;4.03;;
20844;SDS011;10583;49.084;8.646;2022-07-09T04:38:47;3.90;;;3.90;;
20844;SDS011;10583;49.084;8.646;2022-07-09T04:41:14;4.43;;;4.43;;
20844;SDS011;10583;49.084;8.646;2022-07-09T04:43:41;4.50;;;4.50;;
20844;SDS011;10583;49.084;8.646;2022-07-09T04:46:08;4.13;;;4.13;;
20844;SDS011;10583;49.084;8.646;2022-07-09T04:48:36;3.87;;;3.87;;
20844;SDS011;10583;49.084;8.646;2022-07-09T04:51:03;3.83;;;3.83;;
20844;SDS011;10583;49.084;8.646;2022-07-09T04:53:30;3.90;;;3.90;;
20844;SDS011;10583;49.084;8.646;2022-07-09T04:55:57;4.00;;;4.00;;
20844;SDS011;10583;49.084;8.646;2022-07-09T04:58:24;3.70;;;3.70;;
20844;SDS011;10583;49.084;8.646;2022-07-09T05:00:50;4.10;;;4.10;;
20844;SDS011;10583;49.084;8.646;2022-07-09T05:03:17;4.43;;;4.43;;
20844;SDS011;10583;49.084;8.646;2022-07-09T05:05:45;3.83;;;3.83;;
20844;SDS011;10583;49.084;8.646;2022-07-09T05:08:12;3.83;;;3.83;;
20844;SDS011;10583;49.084;8.646;2022-07-09T05:10:38;4.23;;;4.23;;
20844;SDS011;10583;49.084;8.646;2022-07-09T05:13:05;3.73;;;3.73;;
20844;SDS011;10583;49.084;8.646;2022-07-09T05:15:32;3.33;;;3.33;;
20844;SDS011;10583;49.084;8.646;2022-07-09T05:17:58;3.83;;;3.83;;
20844;SDS011;10583;49.084;8.646;2022-07-09T05:20:25;3.70;;;3.70;;
20844;SDS011;10583;49.084;8.646;2022-07-09T05:22:53;3.80;;;3.80;;
20844;SDS011;10583;49.084;8.646;2022-07-09T05:25:20;3.20;;;3.20;;
20844;SDS011;10583;49.084;8.646;2022-07-09T05:27:47;3.63;;;3.63;;
20844;SDS011;10583;49.084;8.646;2022-07-09T05:30:14;3.50;;;3.50;;
20844;SDS011;10583;49.084;8.646;2022-07-09T05:32:41;3.20;;;3.20;;
20844;SDS011;10583;49.084;8.646;2022-07-09T05:35:08;3.53;;;3.53;;
20844;SDS011;10583;49.084;8.646;2022-07-09T05:37:40;3.10;;;3.10;;
20844;SDS011;10583;49.084;8.646;2022-07-09T05:40:09;3.17;;;3.17;;
20844;SDS011;10583;49.084;8.646;2022-07-09T05:42:37;3.30;;;3.30;;
20844;SDS011;10583;49.084;8.646;2022-07-09T05:45:04;3.00;;;3.00;;
20844;SDS011;10583;49.084;8.646;2022-07-09T05:47:31;3.13;;;3.13;;
20844;SDS011;10583;49.084;8.646;2022-07-09T05:49:58;2.97;;;2.97;;
20844;SDS011;10583;49.084;8.646;2022-07-09T05:52:25;3.20;;;3.20;;
20844;SDS011;10583;49.084;8.646;2022-07-09T05:54:51;3.10;;;3.10;;
20844;SDS011;10583;49.084;8.646;2022-07-09T05:57:20;3.00;;;3.00;;
20844;SDS011;10583;49.084;8.646;2022-07-09T05:59:46;2.83;;;2.83;;
20844;SDS011;10583;49.084;8.646;2022-07-09T06:02:13;3.03;;;3.03;;
20844;SDS011;10583;49.084;8.646;2022-07-09T06:04:40;3.27;;;3.27;;
20844;SDS011;10583;49.084;8.646;2022-07-09T06:07:07;2.73;;;2.73;;
20844;SDS011;10583;49.084;8.646;2022-07-09T06:09:34;3.10;;;3.10;;
20844;SDS011;10583;49.084;8.646;2022-07-09T06:12:01;2.67;;;2.67;;
20844;SDS011;10583;49.084;8.646;2022-07-09T06:14:29;2.60;;;2.60;;
20844;SDS011;10583;49.084;8.646;2022-07-09T06:16:55;2.57;;;2.57;;
20844;SDS011;10583;49.084;8.646;2022-07-09T06:19:24;2.33;;;2.33;;
20844;SDS011;10583;49.084;8.646;2022-07-09T06:21:51;2.20;;;2.20;;
20844;SDS011;10583;49.084;8.646;2022-07-09T06:24:17;2.47;;;2.47;;
20844;SDS011;10583;49.084;8.646;2022-07-09T06:26:44;2.30;;;2.30;;
20844;SDS011;10583;49.084;8.646;2022-07-09T06:29:11;2.53;;;2.53;;
20844;SDS011;10583;49.084;8.646;2022-07-09T06:31:39;2.27;;;2.27;;
20844;SDS011;10583;49.084;8.646;2022-07-09T06:34:06;2.23;;;2.23;;
20844;SDS011;10583;49.084;8.646;2022-07-09T06:36:33;2.30;;;2.30;;
20844;SDS011;10583;49.084;8.646;2022-07-09T06:39:00;2.10;;;2.10;;
20844;SDS011;10583;49.084;8.646;2022-07-09T06:41:44;2.17;;;2.17;;
20844;SDS011;10583;49.084;8.646;2022-07-09T06:44:11;2.05;;;2.05;;
20844;SDS011;10583;49.084;8.646;2022-07-09T06:46:37;2.60;;;2.60;;
20844;SDS011;10583;49.084;8.646;2022-07-09T06:49:05;1.83;;;1.83;;
20844;SDS011;10583;49.084;8.646;2022-07-09T06:51:32;2.08;;;2.08;;
20844;SDS011;10583;49.084;8.646;2022-07-09T06:53:59;2.30;;;2.30;;
20844;SDS011;10583;49.084;8.646;2022-07-09T06:56:26;2.53;;;2.53;;
20844;SDS011;10583;49.084;8.646;2022-07-09T06:58:52;2.13;;;2.13;;
20844;SDS011;10583;49.084;8.646;2022-07-09T07:01:19;1.80;;;1.80;;
20844;SDS011;10583;49.084;8.646;2022-07-09T07:03:47;1.67;;;1.67;;
20844;SDS011;10583;49.084;8.646;2022-07-09T07:06:14;2.30;;;2.30;;
20844;SDS011;10583;49.084;8.646;2022-07-09T07:08:40;2.30;;;2.30;;
20844;SDS011;10583;49.084;8.646;2022-07-09T07:11:07;2.10;;;2.10;;
20844;SDS011;10583;49.084;8.646;2022-07-09T07:13:33;1.98;;;1.98;;
20844;SDS011;10583;49.084;8.646;2022-07-09T07:16:00;2.15;;;2.15;;
20844;SDS011;10583;49.084;8.646;2022-07-09T07:18:27;2.20;;;2.20;;
20844;SDS011;10583;49.084;8.646;2022-07-09T07:20:55;2.33;;;2.33;;
20844;SDS011;10583;49.084;8.646;2022-07-09T07:23:21;2.03;;;2.03;;
20844;SDS011;10583;49.084;8.646;2022-07-09T07:25:48;1.98;;;1.98;;
20844;SDS011;10583;49.084;8.646;2022-07-09T07:28:15;2.22;;;2.22;;
20844;SDS011;10583;49.084;8.646;2022-07-09T07:30:41;2.00;;;2.00;;
20844;SDS011;10583;49.084;8.646;2022-07-09T07:33:08;2.25;;;2.25;;
20844;SDS011;10583;49.084;8.646;2022-07-09T07:35:35;1.95;;;1.95;;
20844;SDS011;10583;49.084;8.646;2022-07-09T07:38:03;1.85;;;1.85;;
20844;SDS011;10583;49.084;8.646;2022-07-09T07:40:30;2.33;;;2.33;;
20844;SDS011;10583;49.084;8.646;2022-07-09T07:42:56;1.90;;;1.90;;
20844;SDS011;10583;49.084;8.646;2022-07-09T07:45:23;1.80;;;1.80;;
20844;SDS011;10583;49.084;8.646;2022-07-09T07:47:50;1.67;;;1.67;;
20844;SDS011;10583;49.084;8.646;2022-07-09T07:50:19;1.75;;;1.75;;
20844;SDS011;10583;49.084;8.646;2022-07-09T07:52:46;1.60;;;1.60;;
20844;SDS011;10583;49.084;8.646;2022-07-09T07:55:14;1.77;;;1.77;;
20844;SDS011;10583;49.084;8.646;2022-07-09T07:57:41;1.48;;;1.48;;
20844;SDS011;10583;49.084;8.646;2022-07-09T08:00:08;1.42;;;1.42;;
20844;SDS011;10583;49.084;8.646;2022-07-09T08:02:36;1.75;;;1.75;;
20844;SDS011;10583;49.084;8.646;2022-07-09T08:05:02;1.73;;;1.73;;
20844;SDS011;10583;49.084;8.646;2022-07-09T08:07:30;1.60;;;1.60;;
20844;SDS011;10583;49.084;8.646;2022-07-09T08:09:56;1.55;;;1.55;;
20844;SDS011;10583;49.084;8.646;2022-07-09T08:12:24;1.30;;;1.30;;
20844;SDS011;10583;49.084;8.646;2022-07-09T08:14:51;2.00;;;2.00;;
20844;SDS011;10583;49.084;8.646;2022-07-09T08:17:29;1.50;;;1.50;;
20844;SDS011;10583;49.084;8.646;2022-07-09T08:19:56;1.65;;;1.65;;
20844;SDS011;10583;49.084;8.646;2022-07-09T08:22:22;1.65;;;1.65;;
20844;SDS011;10583;49.084;8.646;2022-07-09T08:24:49;1.50;;;1.50;;
20844;SDS011;10583;49.084;8.646;2022-07-09T08:27:16;1.77;;;1.77;;
20844;SDS011;10583;49.084;8.646;2022-07-09T08:29:42;1.50;;;1.50;;
20844;SDS011;10583;49.084;8.646;2022-07-09T08:32:09;1.70;;;1.70;;
20844;SDS011;10583;49.084;8.646;2022-07-09T08:34:37;1.40;;;1.40;;
20844;SDS011;10583;49.084;8.646;2022-07-09T08:37:04;1.73;;;1.73;;
20844;SDS011;10583;49.084;8.646;2022-07-09T08:39:30;1.50;;;1.50;;
20844;SDS011;10583;49.084;8.646;2022-07-09T08:41:57;1.70;;;1.70;;
20844;SDS011;10583;49.084;8.646;2022-07-09T08:44:25;1.52;;;1.52;;
20844;SDS011;10583;49.084;8.646;2022-07-09T08:46:55;1.60;;;1.60;;
20844;SDS011;10583;49.084;8.646;2022-07-09T08:49:23;1.00;;;1.00;;
20844;SDS011;10583;49.084;8.646;2022-07-09T08:51:53;1.20;;;1.20;;
20844;SDS011;10583;49.084;8.646;2022-07-09T08:54:21;1.30;;;1.30;;
20844;SDS011;10583;49.084;8.646;2022-07-09T08:56:49;1.55;;;1.55;;
20844;SDS011;10583;49.084;8.646;2022-07-09T08:59:17;1.50;;;1.50;;
20844;SDS011;10583;49.084;8.646;2022-07-09T09:01:44;1.88;;;1.88;;
20844;SDS011;10583;49.084;8.646;2022-07-09T09:04:13;1.30;;;1.30;;
20844;SDS011;10583;49.084;8.646;2022-07-09T09:06:40;1.60;;;1.60;;
20844;SDS011;10583;49.084;8.646;2022-07-09T09:09:09;1.58;;;1.58;;
20844;SDS011;10583;49.084;8.646;2022-07-09T09:11:36;1.40;;;1.40;;
20844;SDS011;10583;49.084;8.646;2022-07-09T09:14:04;1.50;;;1.50;;
20844;SDS011;10583;49.084;8.646;2022-07-09T09:16:30;1.25;;;1.25;;
20844;SDS011;10583;49.084;8.646;2022-07-09T09:19:06;1.83;;;1.83;;
20844;SDS011;10583;49.084;8.646;2022-07-09T09:21:36;1.25;;;1.25;;
20844;SDS011;10583;49.084;8.646;2022-07-09T09:24:03;1.20;;;1.20;;
20844;SDS011;10583;49.084;8.646;2022-07-09T09:26:32;1.08;;;1.08;;
20844;SDS011;10583;49.084;8.646;2022-07-09T09:29:00;1.42;;;1.42;;
20844;SDS011;10583;49.084;8.646;2022-07-09T09:31:29;1.15;;;1.15;;
20844;SDS011;10583;49.084;8.646;2022-07-09T09:33:57;1.08;;;1.08;;
20844;SDS011;10583;49.084;8.646;2022-07-09T09:36:36;0.80;;;0.80;;
20844;SDS011;10583;49.084;8.646;2022-07-09T09:39:14;1.08;;;1.08;;
20844;SDS011;10583;49.084;8.646;2022-07-09T09:41:43;0.88;;;0.88;;
20844;SDS011;10583;49.084;8.646;2022-07-09T09:44:12;1.08;;;1.08;;
20844;SDS011;10583;49.084;8.646;2022-07-09T09:46:40;1.00;;;1.00;;
20844;SDS011;10583;49.084;8.646;2022-07-09T09:49:08;0.90;;;0.90;;
20844;SDS011;10583;49.084;8.646;2022-07-09T09:51:37;0.95;;;0.95;;
20844;SDS011;10583;49.084;8.646;2022-07-09T09:54:07;0.90;;;0.90;;
20844;SDS011;10583;49.084;8.646;2022-07-09T09:56:36;0.80;;;0.80;;
20844;SDS011;10583;49.084;8.646;2022-07-09T09:59:06;1.17;;;1.17;;
20844;SDS011;10583;49.084;8.646;2022-07-09T10:01:32;1.08;;;1.08;;
20844;SDS011;10583;49.084;8.646;2022-07-09T10:03:59;0.95;;;0.95;;
20844;SDS011;10583;49.084;8.646;2022-07-09T10:06:27;0.73;;;0.73;;
20844;SDS011;10583;49.084;8.646;2022-07-09T10:08:54;1.02;;;1.02;;
20844;SDS011;10583;49.084;8.646;2022-07-09T10:11:22;0.80;;;0.80;;
20844;SDS011;10583;49.084;8.646;2022-07-09T10:13:50;0.60;;;0.60;;
20844;SDS011;10583;49.084;8.646;2022-07-09T10:16:33;0.73;;;0.73;;
20844;SDS011;10583;49.084;8.646;2022-07-09T10:19:00;0.80;;;0.80;;
20844;SDS011;10583;49.084;8.646;2022-07-09T10:21:34;0.95;;;0.95;;
20844;SDS011;10583;49.084;8.646;2022-07-09T10:24:01;0.90;;;0.90;;
20844;SDS011;10583;49.084;8.646;2022-07-09T10:26:35;1.08;;;1.08;;
20844;SDS011;10583;49.084;8.646;2022-07-09T10:29:19;0.93;;;0.93;;
20844;SDS011;10583;49.084;8.646;2022-07-09T10:31:48;0.90;;;0.90;;
20844;SDS011;10583;49.084;8.646;2022-07-09T10:34:30;0.80;;;0.80;;
20844;SDS011;10583;49.084;8.646;2022-07-09T10:37:10;1.23;;;1.23;;
20844;SDS011;10583;49.084;8.646;2022-07-09T10:39:36;1.00;;;1.00;;
20844;SDS011;10583;49.084;8.646;2022-07-09T10:42:04;1.13;;;1.13;;
20844;SDS011;10583;49.084;8.646;2022-07-09T10:44:35;1.00;;;1.00;;
20844;SDS011;10583;49.084;8.646;2022-07-09T10:47:04;0.90;;;0.90;;
20844;SDS011;10583;49.084;8.646;2022-07-09T10:49:33;0.80;;;0.80;;
20844;SDS011;10583;49.084;8.646;2022-07-09T10:52:00;0.70;;;0.70;;
20844;SDS011;10583;49.084;8.646;2022-07-09T10:54:27;0.98;;;0.98;;
20844;SDS011;10583;49.084;8.646;2022-07-09T10:56:54;1.10;;;1.10;;
20844;SDS011;10583;49.084;8.646;2022-07-09T10:59:22;1.20;;;1.20;;
20844;SDS011;10583;49.084;8.646;2022-07-09T11:01:50;1.00;;;1.00;;
20844;SDS011;10583;49.084;8.646;2022-07-09T11:04:28;1.00;;;1.00;;
20844;SDS011;10583;49.084;8.646;2022-07-09T11:06:56;1.33;;;1.33;;
20844;SDS011;10583;49.084;8.646;2022-07-09T11:09:25;1.20;;;1.20;;
20844;SDS011;10583;49.084;8.646;2022-07-09T11:11:54;1.13;;;1.13;;
20844;SDS011;10583;49.084;8.646;2022-07-09T11:14:21;1.40;;;1.40;;
20844;SDS011;10583;49.084;8.646;2022-07-09T11:16:54;1.20;;;1.20;;
20844;SDS011;10583;49.084;8.646;2022-07-09T11:19:21;1.05;;;1.05;;
20844;SDS011;10583;49.084;8.646;2022-07-09T11:21:49;8.10;;;8.10;;
20844;SDS011;10583;49.084;8.646;2022-07-09T11:24:17;1.58;;;1.58;;
20844;SDS011;10583;49.084;8.646;2022-07-09T11:26:47;1.10;;;1.10;;
20844;SDS011;10583;49.084;8.646;2022-07-09T11:29:14;1.17;;;1.17;;
20844;SDS011;10583;49.084;8.646;2022-07-09T11:31:46;1.20;;;1.20;;
20844;SDS011;10583;49.084;8.646;2022-07-09T11:34:14;1.10;;;1.10;;
20844;SDS011;10583;49.084;8.646;2022-07-09T11:36:42;1.40;;;1.40;;
20844;SDS011;10583;49.084;8.646;2022-07-09T11:39:15;1.42;;;1.42;;
20844;SDS011;10583;49.084;8.646;2022-07-09T11:41:47;1.27;;;1.27;;
20844;SDS011;10583;49.084;8.646;2022-07-09T11:44:19;1.17;;;1.17;;
20844;SDS011;10583;49.084;8.646;2022-07-09T11:46:58;1.30;;;1.30;;
20844;SDS011;10583;49.084;8.646;2022-07-09T11:49:32;1.33;;;1.33;;
20844;SDS011;10583;49.084;8.646;2022-07-09T11:51:59;1.20;;;1.20;;
20844;SDS011;10583;49.084;8.646;2022-07-09T11:54:28;1.20;;;1.20;;
20844;SDS011;10583;49.084;8.646;2022-07-09T11:56:55;1.30;;;1.30;;
20844;SDS011;10583;49.084;8.646;2022-07-09T11:59:25;1.00;;;1.00;;
20844;SDS011;10583;49.084;8.646;2022-07-09T12:01:56;1.30;;;1.30;;
20844;SDS011;10583;49.084;8.646;2022-07-09T12:04:23;1.08;;;1.08;;
20844;SDS011;10583;49.084;8.646;2022-07-09T12:06:50;1.08;;;1.08;;
20844;SDS011;10583;49.084;8.646;2022-07-09T12:09:28;1.30;;;1.30;;
20844;SDS011;10583;49.084;8.646;2022-07-09T12:11:56;1.23;;;1.23;;
20844;SDS011;10583;49.084;8.646;2022-07-09T12:14:23;1.20;;;1.20;;
20844;SDS011;10583;49.084;8.646;2022-07-09T12:16:50;1.17;;;1.17;;
20844;SDS011;10583;49.084;8.646;2022-07-09T12:19:17;1.38;;;1.38;;
20844;SDS011;10583;49.084;8.646;2022-07-09T12:21:44;1.13;;;1.13;;
20844;SDS011;10583;49.084;8.646;2022-07-09T12:24:10;1.08;;;1.08;;
20844;SDS011;10583;49.084;8.646;2022-07-09T12:26:39;1.00;;;1.00;;
20844;SDS011;10583;49.084;8.646;2022-07-09T12:29:05;1.27;;;1.27;;
20844;SDS011;10583;49.084;8.646;2022-07-09T12:31:32;1.27;;;1.27;;
20844;SDS011;10583;49.084;8.646;2022-07-09T12:34:01;1.25;;;1.25;;
20844;SDS011;10583;49.084;8.646;2022-07-09T12:36:28;1.42;;;1.42;;
20844;SDS011;10583;49.084;8.646;2022-07-09T12:38:55;1.13;;;1.13;;
20844;SDS011;10583;49.084;8.646;2022-07-09T12:41:22;1.33;;;1.33;;
20844;SDS011;10583;49.084;8.646;2022-07-09T12:43:49;1.40;;;1.40;;
20844;SDS011;10583;49.084;8.646;2022-07-09T12:46:16;1.30;;;1.30;;
20844;SDS011;10583;49.084;8.646;2022-07-09T12:48:43;1.23;;;1.23;;
20844;SDS011;10583;49.084;8.646;2022-07-09T12:51:09;1.50;;;1.50;;
20844;SDS011;10583;49.084;8.646;2022-07-09T12:53:36;1.40;;;1.40;;
20844;SDS011;10583;49.084;8.646;2022-07-09T12:56:03;1.30;;;1.30;;
20844;SDS011;10583;49.084;8.646;2022-07-09T12:58:30;1.48;;;1.48;;
20844;SDS011;10583;49.084;8.646;2022-07-09T13:00:58;1.60;;;1.60;;
20844;SDS011;10583;49.084;8.646;2022-07-09T13:03:25;1.30;;;1.30;;
20844;SDS011;10583;49.084;8.646;2022-07-09T13:05:52;1.35;;;1.35;;
20844;SDS011;10583;49.084;8.646;2022-07-09T13:08:18;1.40;;;1.40;;
20844;SDS011;10583;49.084;8.646;2022-07-09T13:10:45;1.58;;;1.58;;
20844;SDS011;10583;49.084;8.646;2022-07-09T13:13:12;1.35;;;1.35;;
20844;SDS011;10583;49.084;8.646;2022-07-09T13:15:39;1.13;;;1.13;;
20844;SDS011;10583;49.084;8.646;2022-07-09T13:18:09;1.25;;;1.25;;
20844;SDS011;10583;49.084;8.646;2022-07-09T13:20:35;1.42;;;1.42;;
20844;SDS011;10583;49.084;8.646;2022-07-09T13:23:02;1.27;;;1.27;;
20844;SDS011;10583;49.084;8.646;2022-07-09T13:25:28;1.58;;;1.58;;
20844;SDS011;10583;49.084;8.646;2022-07-09T13:27:56;1.25;;;1.25;;
20844;SDS011;10583;49.084;8.646;2022-07-09T13:30:22;1.27;;;1.27;;
20844;SDS011;10583;49.084;8.646;2022-07-09T13:32:49;1.33;;;1.33;;
20844;SDS011;10583;49.084;8.646;2022-07-09T13:35:18;1.23;;;1.23;;
20844;SDS011;10583;49.084;8.646;2022-07-09T13:37:44;1.30;;;1.30;;
20844;SDS011;10583;49.084;8.646;2022-07-09T13:40:11;1.20;;;1.20;;
20844;SDS011;10583;49.084;8.646;2022-07-09T13:42:37;1.45;;;1.45;;
20844;SDS011;10583;49.084;8.646;2022-07-09T13:45:04;1.42;;;1.42;;
20844;SDS011;10583;49.084;8.646;2022-07-09T13:47:32;1.25;;;1.25;;
20844;SDS011;10583;49.084;8.646;2022-07-09T13:49:59;1.33;;;1.33;;
20844;SDS011;10583;49.084;8.646;2022-07-09T13:52:27;1.30;;;1.30;;
20844;SDS011;10583;49.084;8.646;2022-07-09T13:54:54;1.20;;;1.20;;
20844;SDS011;10583;49.084;8.646;2022-07-09T13:57:20;1.10;;;1.10;;
20844;SDS011;10583;49.084;8.646;2022-07-09T13:59:47;1.40;;;1.40;;
20844;SDS011;10583;49.084;8.646;2022-07-09T14:02:14;1.30;;;1.30;;
20844;SDS011;10583;49.084;8.646;2022-07-09T14:04:40;1.23;;;1.23;;
20844;SDS011;10583;49.084;8.646;2022-07-09T14:07:07;1.50;;;1.50;;
20844;SDS011;10583;49.084;8.646;2022-07-09T14:09:35;1.23;;;1.23;;
20844;SDS011;10583;49.084;8.646;2022-07-09T14:12:02;1.40;;;1.40;;
20844;SDS011;10583;49.084;8.646;2022-07-09T14:14:29;1.20;;;1.20;;
20844;SDS011;10583;49.084;8.646;2022-07-09T14:16:55;1.30;;;1.30;;
20844;SDS011;10583;49.084;8.646;2022-07-09T14:19:22;1.10;;;1.10;;
20844;SDS011;10583;49.084;8.646;2022-07-09T14:21:49;1.38;;;1.38;;
20844;SDS011;10583;49.084;8.646;2022-07-09T14:24:15;1.23;;;1.23;;
20844;SDS011;10583;49.084;8.646;2022-07-09T14:26:43;1.30;;;1.30;;
20844;SDS011;10583;49.084;8.646;2022-07-09T14:29:12;1.30;;;1.30;;
20844;SDS011;10583;49.084;8.646;2022-07-09T14:31:39;1.42;;;1.42;;
20844;SDS011;10583;49.084;8.646;2022-07-09T14:34:06;1.45;;;1.45;;
20844;SDS011;10583;49.084;8.646;2022-07-09T14:36:32;1.40;;;1.40;;
20844;SDS011;10583;49.084;8.646;2022-07-09T14:39:00;1.38;;;1.38;;
20844;SDS011;10583;49.084;8.646;2022-07-09T14:41:27;1.40;;;1.40;;
20844;SDS011;10583;49.084;8.646;2022-07-09T14:43:55;1.02;;;1.02;;
20844;SDS011;10583;49.084;8.646;2022-07-09T14:46:21;1.17;;;1.17;;
20844;SDS011;10583;49.084;8.646;2022-07-09T14:48:48;1.27;;;1.27;;
20844;SDS011;10583;49.084;8.646;2022-07-09T14:51:15;1.40;;;1.40;;